sensor_id;sensor_type;location;lat;lon;timestamp;temperature;humidity
53675;DHT22;39574;50.534;8.500;2023-04-25T00:04:38;9.6;99.9
53675;DHT22;39574;50.534;8.500;2023-04-25T00:14:18;9.5;99.9
53675;DHT22;39574;50.534;8.500;2023-04-25T00:24:16;9.4;99.9
53675;DHT22;39574;50.534;8.500;2023-04-25T00:29:25;9.3;99.9
53675;DHT22;39574;50.534;8.500;2023-04-25T00:39:13;9.1;99.9
53675;DHT22;39574;50.534;8.500;2023-04-25T00:49:11;8.9;99.9
53675;DHT22;39574;50.534;8.500;2023-04-25T00:54:28;8.7;99.9
53675;DHT22;39574;50.534;8.500;2023-04-25T01:04:07;8.6;99.9
53675;DHT22;39574;50.534;8.500;2023-04-25T01:14:06;8.4;99.9
53675;DHT22;39574;50.534;8.500;2023-04-25T01:24:04;8.3;99.9
53675;DHT22;39574;50.534;8.500;2023-04-25T01:34:19;8.2;99.9
53675;DHT22;39574;50.534;8.500;2023-04-25T01:44:03;8.1;99.9
53675;DHT22;39574;50.534;8.500;2023-04-25T01:49:17;7.9;99.9
53675;DHT22;39574;50.534;8.500;2023-04-25T01:58:25;7.9;99.9
53675;DHT22;39574;50.534;8.500;2023-04-25T02:03:55;7.8;99.9
53675;DHT22;39574;50.534;8.500;2023-04-25T02:13:53;7.8;99.9
53675;DHT22;39574;50.534;8.500;2023-04-25T02:23:25;7.7;99.9
53675;DHT22;39574;50.534;8.500;2023-04-25T02:29:00;7.6;99.9
53675;DHT22;39574;50.534;8.500;2023-04-25T02:38:47;7.5;99.9
53675;DHT22;39574;50.534;8.500;2023-04-25T02:43:56;7.5;99.9
53675;DHT22;39574;50.534;8.500;2023-04-25T02:53:54;7.4;99.9
53675;DHT22;39574;50.534;8.500;2023-04-25T02:59:01;7.4;99.9
53675;DHT22;39574;50.534;8.500;2023-04-25T03:08:15;7.2;99.9
53675;DHT22;39574;50.534;8.500;2023-04-25T03:13:39;7.1;99.9
53675;DHT22;39574;50.534;8.500;2023-04-25T03:23:37;7.0;99.9
53675;DHT22;39574;50.534;8.500;2023-04-25T03:33:35;6.9;99.9
53675;DHT22;39574;50.534;8.500;2023-04-25T03:43:33;6.8;99.9
53675;DHT22;39574;50.534;8.500;2023-04-25T03:53:31;6.6;99.9
53675;DHT22;39574;50.534;8.500;2023-04-25T04:03:28;6.5;99.9
53675;DHT22;39574;50.534;8.500;2023-04-25T04:13:26;6.7;99.9
53675;DHT22;39574;50.534;8.500;2023-04-25T04:23:21;6.7;99.9
53675;DHT22;39574;50.534;8.500;2023-04-25T04:33:31;6.9;99.9
53675;DHT22;39574;50.534;8.500;2023-04-25T04:43:17;7.0;99.9
53675;DHT22;39574;50.534;8.500;2023-04-25T04:48:17;7.0;99.9
53675;DHT22;39574;50.534;8.500;2023-04-25T04:58:15;7.0;99.9
53675;DHT22;39574;50.534;8.500;2023-04-25T05:08:13;7.1;99.9
53675;DHT22;39574;50.534;8.500;2023-04-25T05:13:20;7.1;99.9
53675;DHT22;39574;50.534;8.500;2023-04-25T05:23:09;7.2;99.9
53675;DHT22;39574;50.534;8.500;2023-04-25T05:33:25;7.0;99.9
53675;DHT22;39574;50.534;8.500;2023-04-25T05:42:39;6.8;99.9
53675;DHT22;39574;50.534;8.500;2023-04-25T05:48:23;6.7;99.9
53675;DHT22;39574;50.534;8.500;2023-04-25T05:58:02;6.7;99.9
53675;DHT22;39574;50.534;8.500;2023-04-25T06:12:43;6.9;99.9
53675;DHT22;39574;50.534;8.500;2023-04-25T06:17:58;7.1;99.9
53675;DHT22;39574;50.534;8.500;2023-04-25T06:32:35;7.5;99.9
53675;DHT22;39574;50.534;8.500;2023-04-25T06:37:35;7.6;99.9
53675;DHT22;39574;50.534;8.500;2023-04-25T06:42:57;7.6;99.9
53675;DHT22;39574;50.534;8.500;2023-04-25T06:52:23;7.8;99.9
53675;DHT22;39574;50.534;8.500;2023-04-25T07:03:05;7.9;99.9
53675;DHT22;39574;50.534;8.500;2023-04-25T07:12:44;8.0;99.9
53675;DHT22;39574;50.534;8.500;2023-04-25T07:17:47;8.0;99.9
53675;DHT22;39574;50.534;8.500;2023-04-25T07:27:41;8.0;99.9
53675;DHT22;39574;50.534;8.500;2023-04-25T07:33:00;8.3;99.9
53675;DHT22;39574;50.534;8.500;2023-04-25T07:42:36;8.4;99.9
53675;DHT22;39574;50.534;8.500;2023-04-25T07:47:37;8.4;99.9
53675;DHT22;39574;50.534;8.500;2023-04-25T08:02:11;8.5;99.9
53675;DHT22;39574;50.534;8.500;2023-04-25T08:12:18;8.7;99.9
53675;DHT22;39574;50.534;8.500;2023-04-25T08:17:33;9.1;99.9
53675;DHT22;39574;50.534;8.500;2023-04-25T08:32:46;9.6;99.9
53675;DHT22;39574;50.534;8.500;2023-04-25T08:42:26;9.8;99.9
53675;DHT22;39574;50.534;8.500;2023-04-25T08:48:24;9.6;99.9
53675;DHT22;39574;50.534;8.500;2023-04-25T08:57:05;9.1;99.9
53675;DHT22;39574;50.534;8.500;2023-04-25T09:07:17;8.7;99.9
53675;DHT22;39574;50.534;8.500;2023-04-25T09:16:57;8.6;99.9
53675;DHT22;39574;50.534;8.500;2023-04-25T09:22:17;8.7;99.9
53675;DHT22;39574;50.534;8.500;2023-04-25T09:32:12;9.1;99.9
53675;DHT22;39574;50.534;8.500;2023-04-25T09:37:13;9.5;99.9
53675;DHT22;39574;50.534;8.500;2023-04-25T09:42:13;9.8;99.9
53675;DHT22;39574;50.534;8.500;2023-04-25T09:51:41;10.0;99.9
53675;DHT22;39574;50.534;8.500;2023-04-25T09:57:10;10.2;99.9
53675;DHT22;39574;50.534;8.500;2023-04-25T10:02:09;10.2;99.9
53675;DHT22;39574;50.534;8.500;2023-04-25T10:12:07;10.1;99.9
53675;DHT22;39574;50.534;8.500;2023-04-25T10:22:06;10.2;99.9
53675;DHT22;39574;50.534;8.500;2023-04-25T10:32:03;10.3;99.9
53675;DHT22;39574;50.534;8.500;2023-04-25T10:42:01;10.9;99.9
53675;DHT22;39574;50.534;8.500;2023-04-25T10:47:10;11.4;99.9
53675;DHT22;39574;50.534;8.500;2023-04-25T10:57:25;11.1;99.9
53675;DHT22;39574;50.534;8.500;2023-04-25T11:07:07;10.6;99.9
53675;DHT22;39574;50.534;8.500;2023-04-25T11:17:13;10.1;99.9
53675;DHT22;39574;50.534;8.500;2023-04-25T11:26:52;10.1;99.9
53675;DHT22;39574;50.534;8.500;2023-04-25T11:37:12;9.9;99.9
53675;DHT22;39574;50.534;8.500;2023-04-25T11:47:06;10.3;99.9
53675;DHT22;39574;50.534;8.500;2023-04-25T11:57:04;10.6;99.9
53675;DHT22;39574;50.534;8.500;2023-04-25T12:06:26;10.8;99.9
53675;DHT22;39574;50.534;8.500;2023-04-25T12:11:44;11.7;99.9
53675;DHT22;39574;50.534;8.500;2023-04-25T12:21:51;11.8;99.9
53675;DHT22;39574;50.534;8.500;2023-04-25T12:31:57;11.3;99.9
53675;DHT22;39574;50.534;8.500;2023-04-25T12:41:37;11.6;99.9
53675;DHT22;39574;50.534;8.500;2023-04-25T12:51:40;12.4;99.9
53675;DHT22;39574;50.534;8.500;2023-04-25T13:01:09;12.8;99.4
53675;DHT22;39574;50.534;8.500;2023-04-25T13:06:31;12.5;99.2
53675;DHT22;39574;50.534;8.500;2023-04-25T13:16:30;11.8;99.4
53675;DHT22;39574;50.534;8.500;2023-04-25T13:21:49;11.0;99.6
53675;DHT22;39574;50.534;8.500;2023-04-25T13:36:04;10.5;99.8
53675;DHT22;39574;50.534;8.500;2023-04-25T13:42:22;10.3;99.9
53675;DHT22;39574;50.534;8.500;2023-04-25T13:51:24;10.8;99.9
53675;DHT22;39574;50.534;8.500;2023-04-25T14:01:22;11.1;99.9
53675;DHT22;39574;50.534;8.500;2023-04-25T14:10:54;11.3;98.9
53675;DHT22;39574;50.534;8.500;2023-04-25T14:16:19;11.3;98.2
53675;DHT22;39574;50.534;8.500;2023-04-25T14:21:38;11.1;97.9
53675;DHT22;39574;50.534;8.500;2023-04-25T14:31:16;11.1;98.4
53675;DHT22;39574;50.534;8.500;2023-04-25T14:36:31;11.1;99.1
53675;DHT22;39574;50.534;8.500;2023-04-25T14:50:57;12.0;97.9
53675;DHT22;39574;50.534;8.500;2023-04-25T14:56:09;12.4;94.6
53675;DHT22;39574;50.534;8.500;2023-04-25T15:01:10;12.4;92.2
53675;DHT22;39574;50.534;8.500;2023-04-25T15:06:21;12.0;91.1
53675;DHT22;39574;50.534;8.500;2023-04-25T15:16:07;11.3;91.8
53675;DHT22;39574;50.534;8.500;2023-04-25T15:26:27;10.8;93.9
53675;DHT22;39574;50.534;8.500;2023-04-25T15:35:45;10.5;95.9
53675;DHT22;39574;50.534;8.500;2023-04-25T15:40:49;10.5;97.2
53675;DHT22;39574;50.534;8.500;2023-04-25T15:46:01;10.6;97.0
53675;DHT22;39574;50.534;8.500;2023-04-25T15:56:18;10.8;97.0
53675;DHT22;39574;50.534;8.500;2023-04-25T16:05:39;11.3;97.8
53675;DHT22;39574;50.534;8.500;2023-04-25T16:10:56;11.3;96.6
53675;DHT22;39574;50.534;8.500;2023-04-25T16:20:55;11.4;94.7
53675;DHT22;39574;50.534;8.500;2023-04-25T16:26:12;11.3;94.3
53675;DHT22;39574;50.534;8.500;2023-04-25T16:35:49;11.5;95.3
53675;DHT22;39574;50.534;8.500;2023-04-25T16:41:09;11.6;98.7
53675;DHT22;39574;50.534;8.500;2023-04-25T16:51:07;11.7;99.6
53675;DHT22;39574;50.534;8.500;2023-04-25T17:00:48;11.9;97.1
53675;DHT22;39574;50.534;8.500;2023-04-25T17:11:04;11.6;94.8
53675;DHT22;39574;50.534;8.500;2023-04-25T17:20:42;11.4;93.4
53675;DHT22;39574;50.534;8.500;2023-04-25T17:25:43;11.1;93.3
53675;DHT22;39574;50.534;8.500;2023-04-25T17:35:42;10.8;93.5
53675;DHT22;39574;50.534;8.500;2023-04-25T17:40:53;10.4;94.0
53675;DHT22;39574;50.534;8.500;2023-04-25T17:50:19;10.3;96.5
53675;DHT22;39574;50.534;8.500;2023-04-25T17:55:20;10.2;98.2
53675;DHT22;39574;50.534;8.500;2023-04-25T18:00:36;10.5;99.4
53675;DHT22;39574;50.534;8.500;2023-04-25T18:10:34;10.7;99.9
53675;DHT22;39574;50.534;8.500;2023-04-25T18:20:42;10.1;99.9
53675;DHT22;39574;50.534;8.500;2023-04-25T18:30:27;9.6;99.9
53675;DHT22;39574;50.534;8.500;2023-04-25T18:40:27;9.4;99.9
53675;DHT22;39574;50.534;8.500;2023-04-25T18:45:45;9.1;99.9
53675;DHT22;39574;50.534;8.500;2023-04-25T18:55:24;8.8;99.9
53675;DHT22;39574;50.534;8.500;2023-04-25T19:05:22;8.7;99.9
53675;DHT22;39574;50.534;8.500;2023-04-25T19:15:19;8.7;99.9
53675;DHT22;39574;50.534;8.500;2023-04-25T19:20:37;8.8;99.9
53675;DHT22;39574;50.534;8.500;2023-04-25T19:30:17;8.7;99.9
53675;DHT22;39574;50.534;8.500;2023-04-25T19:40:15;8.6;99.9
53675;DHT22;39574;50.534;8.500;2023-04-25T19:50:12;8.6;99.9
53675;DHT22;39574;50.534;8.500;2023-04-25T20:00:20;8.5;99.9
53675;DHT22;39574;50.534;8.500;2023-04-25T20:10:08;8.5;99.9
53675;DHT22;39574;50.534;8.500;2023-04-25T20:20:16;8.5;99.9
53675;DHT22;39574;50.534;8.500;2023-04-25T20:29:45;8.6;99.9
53675;DHT22;39574;50.534;8.500;2023-04-25T20:44:26;8.7;99.9
53675;DHT22;39574;50.534;8.500;2023-04-25T20:49:59;8.5;99.9
53675;DHT22;39574;50.534;8.500;2023-04-25T20:59:56;8.2;99.9
53675;DHT22;39574;50.534;8.500;2023-04-25T21:05:14;8.0;99.9
53675;DHT22;39574;50.534;8.500;2023-04-25T21:15:12;7.6;99.9
53675;DHT22;39574;50.534;8.500;2023-04-25T21:24:51;7.1;99.9
53675;DHT22;39574;50.534;8.500;2023-04-25T21:34:49;6.7;99.9
53675;DHT22;39574;50.534;8.500;2023-04-25T21:39:51;6.2;99.9
53675;DHT22;39574;50.534;8.500;2023-04-25T21:49:45;6.1;99.9
53675;DHT22;39574;50.534;8.500;2023-04-25T21:54:55;5.9;99.9
53675;DHT22;39574;50.534;8.500;2023-04-25T22:04:42;5.8;99.9
53675;DHT22;39574;50.534;8.500;2023-04-25T22:14:39;5.7;99.9
53675;DHT22;39574;50.534;8.500;2023-04-25T22:24:37;5.5;99.9
53675;DHT22;39574;50.534;8.500;2023-04-25T22:34:50;5.3;99.9
53675;DHT22;39574;50.534;8.500;2023-04-25T22:44:49;5.2;99.9
53675;DHT22;39574;50.534;8.500;2023-04-25T22:54:48;5.0;99.9
53675;DHT22;39574;50.534;8.500;2023-04-25T23:04:45;5.1;99.9
53675;DHT22;39574;50.534;8.500;2023-04-25T23:14:24;5.2;99.9
53675;DHT22;39574;50.534;8.500;2023-04-25T23:24:21;5.2;99.9
53675;DHT22;39574;50.534;8.500;2023-04-25T23:34:19;5.0;99.9
53675;DHT22;39574;50.534;8.500;2023-04-25T23:44:35;4.9;99.9
53675;DHT22;39574;50.534;8.500;2023-04-25T23:54:14;4.6;99.9
